Flight Track Log - Related Links

Times and Time Zones

All times are in EDT time to prevent confusion due to time zone crossing. See the N924AK flight status page for this flight to view local times or setup timezone preferences in your user account.

Time Position Orientation Groundspeed Altitude Reporting Facility
EDT Latitude Longitude Course Direction KTS MPH feet Rate Location/Type
Sun 05:03:59 PM 38.8833 -77.0500 311° West 179 206 1,200  Level Potomac TRACON
Sun 05:04:53 PM 38.9167 -77.1000 311° West 224 258 3,600 2,737 Climbing Potomac TRACON
Sun 05:05:53 PM 38.9667 -77.1667 314° West 253 291 6,400 2,826 Climbing Potomac TRACON
Sun 05:06:54 PM 39.0333 -77.1667 360° North 290 334 9,300 2,678 Climbing Potomac TRACON
Sun 05:07:54 PM 39.0167 -77.0833 104° East 301 346 11,800 2,157 Climbing Potomac TRACON
Sun 05:09:27 PM 38.9244 -76.9444 130° Southeast 331 381 14,800 1,792 Climbing Washington Center
Sun 05:10:28 PM 38.8356 -76.8894 154° Southeast 336 387 16,400 1,550 Climbing Washington Center
Sun 05:11:27 PM 38.7403 -76.8347 156° South 357 411 17,900 1,700 Climbing Washington Center
Sun 05:12:28 PM 38.6553 -76.7853 156° South 367 422 19,800 2,083 Climbing Washington Center
Sun 05:13:28 PM 38.5639 -76.7333 156° South 367 422 22,100 2,100 Climbing Washington Center
Sun 05:14:28 PM 38.4683 -76.7133 171° South 357 411 24,000 1,563 Climbing Washington Center
Sun 05:15:27 PM 38.3683 -76.7014 175° South 357 411 25,200 1,008 Climbing Washington Center
Sun 05:16:27 PM 38.2661 -76.6839 172° South 362 417 26,000 793 Climbing Washington Center
Sun 05:17:28 PM 38.1539 -76.6692 174° South 387 445 26,800 1,339 Climbing Washington Center
Sun 05:18:28 PM 38.0433 -76.6569 175° South 399 459 28,700 1,881 Climbing Washington Center
Sun 05:19:26 PM 37.9372 -76.6422 174° South 399 459 30,500 1,664 Climbing Washington Center
Sun 05:20:27 PM 37.8164 -76.6275 175° South 399 459 32,000 744 Climbing Washington Center
Sun 05:21:27 PM 37.7039 -76.6103 173° South 409 471 32,000  Level Washington Center
Sun 05:22:26 PM 37.5956 -76.6008 176° South 414 476 32,000  Level Washington Center
Sun 05:23:27 PM 37.4742 -76.6306 191° South 439 505 32,000 446 Level Washington Center
Sun 05:24:27 PM 37.3550 -76.6656 193° South 439 505 32,900 1,339 Climbing Washington Center
Sun 05:25:28 PM 37.2442 -76.7058 196° South 433 498 34,700 1,537 Climbing Washington Center
Sun 05:26:28 PM 37.1353 -76.7408 194° South 422 486 36,000 1,220 Climbing Washington Center
Sun 05:27:26 PM 37.0286 -76.7783 196° South 410 472 37,100 1,373 Climbing Washington Center
Sun 05:28:26 PM 36.9239 -76.8103 194° South 398 458 38,700 1,190 Climbing Washington Center
Sun 05:29:27 PM 36.8233 -76.8425 194° South 387 445 39,500 645 Climbing Washington Center
Sun 05:30:27 PM 36.7250 -76.8772 196° South 376 433 40,000 248 Climbing Washington Center
Sun 05:31:28 PM 36.6244 -76.9092 194° South 376 433 40,000  Level Washington Center
Sun 05:32:27 PM 36.5178 -76.9411 194° South 381 438 40,000  Level Washington Center
Sun 05:33:27 PM 36.3983 -76.9828 196° South 397 457 40,000  Level Washington Center
Sun 05:34:28 PM 36.2875 -77.0169 194° South 402 463 40,000  Level Washington Center
Sun 05:35:27 PM 36.1764 -77.0536 195° South 412 474 40,000  Level Washington Center
Sun 05:36:27 PM 36.0633 -77.0875 194° South 418 481 40,000  Level Washington Center
Sun 05:37:28 PM 35.9503 -77.1214 194° South 418 481 40,000  Level Washington Center
Sun 05:38:28 PM 35.8453 -77.1578 196° South 404 465 40,000  Level Washington Center
Sun 05:39:26 PM 35.7281 -77.1911 193° South 409 471 40,000  Level Washington Center
Sun 05:40:27 PM 35.6150 -77.2272 195° South 414 476 40,000  Level Washington Center
Sun 05:41:28 PM 35.5017 -77.2633 195° South 414 476 40,000  Level Washington Center
Sun 05:42:26 PM 35.3886 -77.2992 194° South 414 476 40,000  Level Washington Center
Sun 05:43:27 PM 35.2775 -77.3297 193° South 414 476 40,000  Level Washington Center
Sun 05:44:28 PM 35.1664 -77.3681 196° South 414 476 40,000  Level Washington Center
Sun 05:45:26 PM 35.0764 -77.3939 193° South 414 476 40,000  Level Washington Center
Sun 05:46:26 PM 34.9508 -77.4089 186° South 414 476 40,000  Level Washington Center
Sun 05:47:27 PM 34.8319 -77.4089 180° South 419 482 40,000  Level Washington Center
Sun 05:48:27 PM 34.7153 -77.3986 176° South 419 482 40,000  Level Washington Center
Sun 05:49:28 PM 34.5986 -77.3861 175° South 425 489 40,000  Level Washington Center
Sun 05:50:26 PM 34.4797 -77.3858 180° South 425 489 40,000  Level Washington Center
Sun 05:51:27 PM 34.3644 -77.4236 195° South 425 489 40,000  Level Washington Center
Sun 05:52:28 PM 34.2533 -77.4614 196° South 425 489 40,000  Level Washington Center
Sun 05:54:13 PM 34.0419 -77.5372 197° South 426 490 40,000  Level Jacksonville Center
Sun 05:55:13 PM 33.9261 -77.5644 191° South 431 496 40,000  Level Jacksonville Center
Sun 05:56:13 PM 33.8058 -77.5767 185° South 437 503 40,000  Level Jacksonville Center
Sun 05:57:13 PM 33.6831 -77.5867 184° South 437 503 40,000  Level Jacksonville Center
Sun 05:58:13 PM 33.5522 -77.6019 186° South 437 503 40,000  Level Jacksonville Center
Sun 05:59:13 PM 33.4317 -77.6142 185° South 437 503 40,000  Level Jacksonville Center
Sun 06:00:13 PM 33.3133 -77.6286 186° South 437 503 40,000  Level Jacksonville Center
Sun 06:01:13 PM 33.1908 -77.6408 185° South 437 503 40,000  Level Jacksonville Center
Sun 06:02:13 PM 33.0683 -77.6528 185° South 442 509 40,000  Level Jacksonville Center
Sun 06:03:13 PM 32.9478 -77.6650 185° South 442 509 40,000  Level Jacksonville Center
Sun 06:04:13 PM 32.8272 -77.6794 186° South 442 509 40,000  Level Jacksonville Center
Sun 06:05:13 PM 32.7025 -77.6914 185° South 442 509 40,000  Level Jacksonville Center
Sun 06:06:13 PM 32.5778 -77.7036 185° South 442 509 40,000  Level Jacksonville Center
Sun 06:07:13 PM 32.4553 -77.7203 187° South 442 509 40,000  Level Jacksonville Center
Sun 06:08:13 PM 32.3306 -77.7300 184° South 442 509 40,000  Level Jacksonville Center
Sun 06:09:13 PM 32.2058 -77.7419 185° South 442 509 40,000  Level Jacksonville Center
Sun 06:10:13 PM 32.0814 -77.7586 186° South 442 509 40,000  Level Jacksonville Center
Sun 06:11:13 PM 31.9567 -77.7731 186° South 447 514 40,000  Level Jacksonville Center
Sun 06:12:13 PM 31.8325 -77.7994 190° South 447 514 40,000  Level Jacksonville Center
Sun 06:13:13 PM 31.7064 -77.8331 193° South 465 535 40,000  Level Jacksonville Center
Sun 06:14:13 PM 31.5803 -77.8644 192° South 470 541 40,000  Level Jacksonville Center
Sun 06:15:13 PM 31.4542 -77.8931 191° South 463 533 40,000  Level Jacksonville Center
Sun 06:16:13 PM 31.3300 -77.9192 190° South 469 540 40,000  Level Jacksonville Center
Sun 06:17:13 PM 31.2039 -77.9503 192° South 464 534 40,000  Level Jacksonville Center
Sun 06:18:13 PM 31.0794 -77.9714 188° South 463 533 40,000  Level Jacksonville Center
Sun 06:19:13 PM 30.9661 -78.0111 197° South 475 547 40,000  Level Jacksonville Center
Sun 06:20:13 PM 30.8400 -78.0419 192° South 468 539 40,000  Level Jacksonville Center
Sun 06:22:05 PM 30.5958 -78.1011 192° South 473 544 40,000  Level Miami Center
Sun 06:23:05 PM 30.4728 -78.1311 192° South 460 529 40,000  Level Miami Center
Sun 06:24:05 PM 30.3683 -78.1611 194° South 460 529 40,000  Level Miami Center
Sun 06:25:05 PM 30.2281 -78.2242 201° Southwest 460 529 40,000  Level Miami Center
Sun 06:26:05 PM 30.1086 -78.2756 200° South 465 535 40,000  Level Miami Center
Sun 06:27:05 PM 29.9914 -78.3386 205° Southwest 472 543 40,000  Level Miami Center
Sun 06:28:05 PM 29.8697 -78.3894 200° South 466 536 40,000  Level Miami Center
Sun 06:29:05 PM 29.7483 -78.4403 200° South 466 536 40,000  Level Miami Center
Sun 06:30:05 PM 29.6269 -78.4864 198° South 466 536 40,000  Level Miami Center
Sun 06:31:05 PM 29.5053 -78.5394 201° Southwest 471 542 40,000  Level Miami Center
Sun 06:32:05 PM 29.3878 -78.5947 202° Southwest 471 542 40,000  Level Miami Center
Sun 06:33:05 PM 29.2642 -78.6453 200° South 476 548 40,000  Level Miami Center
Sun 06:34:05 PM 29.1467 -78.6978 201° Southwest 470 541 40,000 -50 Level Miami Center
Sun 06:35:05 PM 29.0228 -78.7456 199° South 470 541 39,900  Descending Miami Center
Sun 06:36:05 PM 28.9053 -78.8006 202° Southwest 470 541 40,000 50 Climbing Miami Center
Sun 06:37:05 PM 28.7794 -78.8481 198° South 470 541 40,000  Level Miami Center
Sun 06:38:05 PM 28.6617 -78.9006 201° Southwest 470 541 40,000  Level Miami Center
Sun 06:39:05 PM 28.5422 -78.9525 201° Southwest 475 547 40,000  Level Miami Center
Sun 06:40:05 PM 28.4203 -79.0047 201° Southwest 475 547 40,000  Level Miami Center
Sun 06:41:05 PM 28.2964 -79.0494 198° South 475 547 40,000  Level Miami Center
Sun 06:42:05 PM 28.1769 -79.0894 196° South 467 537 40,000 -250 Level Miami Center
Sun 06:43:05 PM 28.0489 -79.1247 194° South 467 537 39,500 -1,250 Descending Miami Center
Sun 06:44:05 PM 27.9253 -79.1622 195° South 467 537 37,500 -2,000 Descending Miami Center
Sun 06:45:05 PM 27.8181 -79.1975 196° South 457 526 35,500 -2,300 Descending Miami Center
Sun 06:46:05 PM 27.6756 -79.2414 195° South 471 542 32,900 -2,450 Descending Miami Center
Sun 06:47:05 PM 27.5494 -79.2786 195° South 477 549 30,600 -2,300 Descending Miami Center
Sun 06:48:05 PM 27.4236 -79.3158 195° South 477 549 28,300 -2,150 Descending Miami Center
Sun 06:49:05 PM 27.3103 -79.3508 195° South 477 549 26,300 -1,950 Descending Miami Center
Sun 06:50:05 PM 27.1844 -79.3878 195° South 477 549 24,400 -1,550 Descending Miami Center
Sun 06:51:05 PM 27.0583 -79.4272 196° South 446 513 23,200 -1,550 Descending Miami Center
Sun 06:52:05 PM 26.9469 -79.4594 194° South 421 484 21,300 -2,050 Descending Miami Center
Sun 06:53:05 PM 26.8336 -79.4944 195° South 421 484 19,100 -2,100 Descending Miami Center
Sun 06:54:05 PM 26.7308 -79.5269 196° South 426 490 17,100 -1,550 Descending Miami Center
Sun 06:55:05 PM 26.6150 -79.5731 200° South 412 474 16,000 -550 Descending Miami Center
Sun 06:56:05 PM 26.5322 -79.6361 214° Southwest 403 464 16,000 -50 Level Miami Center
Sun 06:57:05 PM 26.4592 -79.7411 232° Southwest 403 464 15,900 -400 Descending Miami Center
Sun 06:58:05 PM 26.3972 -79.8208 229° Southwest 390 449 15,200 -1,200 Descending Miami Center
Sun 06:59:05 PM 26.2956 -79.8878 211° Southwest 383 441 13,500 -1,550 Descending Miami Center
Sun 07:00:05 PM 26.2108 -79.9436 211° Southwest 390 449 12,100 -1,500 Descending Miami Center
Sun 07:01:05 PM 26.1178 -79.9967 207° Southwest 390 449 10,500 -1,100 Descending Miami Center
Sun 07:02:05 PM 26.0414 -80.0456 210° Southwest 358 412 9,900 -800 Descending Miami Center
Sun 07:03:05 PM 25.9758 -80.0900 211° Southwest 315 362 8,900 -889 Descending Miami Center
Sun 07:04:20 PM 25.9131 -80.1853 234° Southwest 272 313 7,900 -803 Descending Miami Center
Sun 07:05:27 PM 25.9044 -80.2844 265° West 292 336 7,000 -984 Descending Miami Center
Sun 07:06:28 PM 25.8983 -80.3719 266° West 279 321 5,800 -1,475 Descending Miami Center
Sun 07:07:29 PM 25.8878 -80.4572 262° West 276 318 4,000 -1,453 Descending Miami Center
Sun 07:08:36 PM 25.8208 -80.4667 187° South 222 255 2,700 -1,034 Descending Miami Center
Sun 07:09:25 PM 25.7944 -80.4267 126° Southeast 202 232 2,000 -776 Descending Miami Center
Sun 07:10:32 PM 25.7958 -80.3714 88° East 139 160 1,200 -716 Descending Miami Center
Sun 07:11:39 PM 25.8011 -80.3231 83° East 127 146 400 -716 Descending Miami Center
Sun 07:13:00 PM 25.7954 -80.2901 103° East  Level Estimated
Sun 07:20:00 PM 25.7954 -80.2901 103° East  Level Estimated

Login

Don't have an account? Register now (free) for customized features, flight alerts, and more!